Time;durP1;ratioP1;P1;durP2;ratioP2;P2;SDS_P1;SDS_P2;PMS_P1;PMS_P2;Temp;Humidity;BMP_temperature;BMP_pressure;BME280_temperature;BME280_humidity;BME280_pressure;Samples;Min_cycle;Max_cycle;Signal;HPM_P1;HPM_P2
2023/09/01 00:01:29;;;;;;;14.90;14.00;;;17.80;99.90;;;;;;5073699;28;20483;-72
2023/09/01 00:03:56;;;;;;;13.13;12.50;;;17.80;99.90;;;;;;5075090;28;20450;-72
2023/09/01 00:06:23;;;;;;;13.10;12.47;;;17.80;99.90;;;;;;5083634;28;20451;-72
2023/09/01 00:08:50;;;;;;;13.90;13.00;;;17.80;99.90;;;;;;5073840;28;20446;-72
2023/09/01 00:11:17;;;;;;;14.10;13.20;;;17.80;99.90;;;;;;5073767;28;20477;-72
2023/09/01 00:13:43;;;;;;;14.77;13.97;;;17.80;99.90;;;;;;5073570;28;20996;-72
2023/09/01 00:16:12;;;;;;;15.40;14.50;;;17.70;99.90;;;;;;5073598;28;20446;-72
2023/09/01 00:18:38;;;;;;;14.77;13.63;;;17.70;99.90;;;;;;5073534;28;20467;-72
2023/09/01 00:21:05;;;;;;;15.17;14.20;;;17.70;99.90;;;;;;5074046;28;20459;-72
2023/09/01 00:23:32;;;;;;;14.87;13.83;;;17.70;99.90;;;;;;5082755;28;20443;-72
2023/09/01 00:26:00;;;;;;;14.83;13.80;;;17.70;99.90;;;;;;5082558;28;20846;-71
2023/09/01 00:28:28;;;;;;;14.37;13.60;;;17.70;99.90;;;;;;5093812;28;20442;-72
2023/09/01 00:30:56;;;;;;;15.87;15.07;;;17.70;99.90;;;;;;5080060;28;20447;-72
2023/09/01 00:33:29;;;;;;;16.40;15.40;;;17.70;99.90;;;;;;5073331;28;20502;-72
2023/09/01 00:35:56;;;;;;;15.37;14.50;;;17.60;99.90;;;;;;5084861;28;20469;-72
2023/09/01 00:38:24;;;;;;;15.57;14.77;;;17.60;99.90;;;;;;5074181;28;20458;-71
2023/09/01 00:40:51;;;;;;;15.70;14.80;;;17.60;99.90;;;;;;5093518;28;20511;-72
2023/09/01 00:43:18;;;;;;;15.20;14.40;;;17.50;99.90;;;;;;5074586;28;20450;-72
2023/09/01 00:45:44;;;;;;;16.00;14.90;;;17.50;99.90;;;;;;5073209;28;20447;-72
2023/09/01 00:48:13;;;;;;;16.40;15.50;;;17.50;99.90;;;;;;5073200;28;20451;-72
2023/09/01 00:50:42;;;;;;;15.90;15.20;;;17.50;99.90;;;;;;5073111;28;20989;-72
2023/09/01 00:53:09;;;;;;;13.70;13.10;;;17.60;99.90;;;;;;5072798;28;20487;-72
2023/09/01 00:55:37;;;;;;;13.80;13.10;;;17.60;99.90;;;;;;5072182;28;20815;-72
2023/09/01 00:58:04;;;;;;;15.33;14.53;;;17.60;99.90;;;;;;5072922;28;20447;-72
2023/09/01 01:00:32;;;;;;;13.90;13.20;;;17.60;99.90;;;;;;5072840;28;20454;-72
2023/09/01 01:03:00;;;;;;;14.17;13.27;;;17.70;99.90;;;;;;5072926;28;20455;-72
2023/09/01 01:05:36;;;;;;;13.47;12.60;;;17.70;99.90;;;;;;5078343;28;20512;-72
2023/09/01 01:08:12;;;;;;;15.57;14.83;;;17.70;99.90;;;;;;5078745;28;20963;-72
2023/09/01 01:10:51;;;;;;;15.37;14.67;;;17.80;99.90;;;;;;5088342;28;20518;-72
2023/09/01 01:13:21;;;;;;;13.47;12.40;;;17.80;99.90;;;;;;5092808;28;20543;-72
2023/09/01 01:15:51;;;;;;;13.57;12.97;;;17.80;99.90;;;;;;5072727;28;20447;-72
2023/09/01 01:18:19;;;;;;;13.50;12.80;;;17.80;99.90;;;;;;5072457;28;20489;-72
2023/09/01 01:20:52;;;;;;;12.80;12.20;;;17.90;99.90;;;;;;5072515;28;20443;-72
2023/09/01 01:23:20;;;;;;;12.97;12.07;;;18.00;99.90;;;;;;5079312;28;20459;-72
2023/09/01 01:25:48;;;;;;;13.37;12.67;;;17.90;99.90;;;;;;5087983;28;20439;-72
2023/09/01 01:28:15;;;;;;;12.03;11.33;;;17.90;99.90;;;;;;5072357;28;20454;-72
2023/09/01 01:30:42;;;;;;;18.37;17.57;;;17.90;99.90;;;;;;5085514;28;20446;-71
2023/09/01 01:33:30;;;;;;;20.87;19.73;;;17.90;99.90;;;;;;5092697;28;20482;-73
2023/09/01 01:36:08;;;;;;;28.00;26.57;;;17.70;99.90;;;;;;5092482;28;20438;-73
2023/09/01 01:38:39;;;;;;;33.40;31.80;;;17.40;99.90;;;;;;5089192;28;20458;-74
2023/09/01 01:41:11;;;;;;;35.17;33.13;;;17.10;99.90;;;;;;5072158;28;20451;-74
2023/09/01 01:43:40;;;;;;;32.20;30.70;;;16.80;99.90;;;;;;5072015;28;20439;-75
2023/09/01 01:46:07;;;;;;;32.40;31.00;;;16.60;99.90;;;;;;5071981;28;20447;-76
2023/09/01 01:48:37;;;;;;;33.67;32.17;;;16.60;99.90;;;;;;5072141;28;20455;-77
2023/09/01 01:51:05;;;;;;;35.73;33.87;;;16.50;99.90;;;;;;5072387;28;20839;-77
2023/09/01 01:53:33;;;;;;;34.00;32.30;;;16.50;99.90;;;;;;5071597;28;20502;-75
2023/09/01 01:56:01;;;;;;;33.43;31.83;;;16.50;99.90;;;;;;5071879;28;20586;-76
2023/09/01 01:58:27;;;;;;;31.97;30.47;;;16.40;99.90;;;;;;5071799;28;20439;-77
2023/09/01 02:00:54;;;;;;;32.53;30.83;;;16.40;99.90;;;;;;5071682;28;20492;-77
2023/09/01 02:03:21;;;;;;;31.80;30.20;;;16.40;99.90;;;;;;5071726;28;20932;-76
2023/09/01 02:05:47;;;;;;;30.33;28.83;;;16.40;99.90;;;;;;5071647;28;20803;-77
2023/09/01 02:08:14;;;;;;;27.20;26.00;;;16.40;99.90;;;;;;5071457;28;20466;-77
2023/09/01 02:10:41;;;;;;;24.53;23.50;;;16.50;99.90;;;;;;5071798;28;20458;-77
2023/09/01 02:13:09;;;;;;;21.60;20.70;;;16.50;99.90;;;;;;5071565;28;21270;-77
2023/09/01 02:15:36;;;;;;;19.87;18.67;;;16.50;99.90;;;;;;5071552;28;20454;-77
2023/09/01 02:18:03;;;;;;;17.87;17.07;;;16.60;99.90;;;;;;5071284;28;20472;-76
2023/09/01 02:20:30;;;;;;;17.30;16.60;;;16.60;99.90;;;;;;5071553;28;20478;-76
2023/09/01 02:22:57;;;;;;;17.83;16.93;;;16.80;99.90;;;;;;5071377;28;20447;-76
2023/09/01 02:25:23;;;;;;;17.63;16.70;;;16.90;99.90;;;;;;5071385;28;20451;-76
2023/09/01 02:27:50;;;;;;;18.87;17.07;;;17.10;99.90;;;;;;5071229;28;20933;-75
2023/09/01 02:30:18;;;;;;;16.33;15.53;;;17.20;99.90;;;;;;5071023;28;20822;-75
2023/09/01 02:32:45;;;;;;;15.60;14.67;;;17.30;99.90;;;;;;5070994;28;20505;-75
2023/09/01 02:35:11;;;;;;;15.00;14.33;;;17.50;99.90;;;;;;5080952;28;20459;-75
2023/09/01 02:37:38;;;;;;;15.50;14.80;;;17.50;99.90;;;;;;5071090;28;20451;-74
2023/09/01 02:40:10;;;;;;;14.50;13.90;;;17.60;99.90;;;;;;5091289;28;20470;-74
2023/09/01 02:42:39;;;;;;;16.00;15.20;;;17.70;99.90;;;;;;5084830;28;20893;-74
2023/09/01 02:45:07;;;;;;;15.90;15.30;;;17.70;99.90;;;;;;5070889;28;20447;-75
2023/09/01 02:47:35;;;;;;;15.57;14.77;;;17.70;99.90;;;;;;5070961;28;20447;-75
2023/09/01 02:50:02;;;;;;;15.70;14.50;;;17.80;99.90;;;;;;5070911;28;20447;-75
2023/09/01 02:52:29;;;;;;;16.70;16.00;;;17.80;99.90;;;;;;5084822;28;20653;-75
2023/09/01 02:54:56;;;;;;;16.27;15.47;;;17.80;99.90;;;;;;5091101;28;20951;-75
2023/09/01 02:57:23;;;;;;;15.77;14.97;;;17.80;99.90;;;;;;5091165;28;20442;-75
2023/09/01 02:59:50;;;;;;;16.10;14.90;;;17.80;99.90;;;;;;5091239;28;20456;-75
2023/09/01 03:02:17;;;;;;;16.87;15.97;;;17.80;99.90;;;;;;5091093;28;20446;-76
2023/09/01 03:04:45;;;;;;;15.40;14.80;;;17.70;99.90;;;;;;5091184;28;20446;-76
2023/09/01 03:07:11;;;;;;;14.50;13.90;;;17.70;99.90;;;;;;5090998;28;20458;-75
2023/09/01 03:09:38;;;;;;;16.10;15.43;;;17.70;99.90;;;;;;5083178;28;20948;-75
2023/09/01 03:12:05;;;;;;;14.10;13.50;;;17.80;99.90;;;;;;5081104;28;20967;-75
2023/09/01 03:14:32;;;;;;;14.57;13.93;;;17.80;99.90;;;;;;5082545;28;20493;-75
2023/09/01 03:16:59;;;;;;;15.63;14.97;;;17.90;99.90;;;;;;5076055;28;20478;-75
2023/09/01 03:19:26;;;;;;;14.10;13.60;;;17.90;99.90;;;;;;5071717;28;20470;-76
2023/09/01 03:21:54;;;;;;;15.00;14.50;;;18.00;99.90;;;;;;5090996;28;20947;-75
2023/09/01 03:24:20;;;;;;;14.53;13.93;;;18.00;99.90;;;;;;5090820;28;20438;-75
2023/09/01 03:26:47;;;;;;;15.13;14.43;;;18.10;99.90;;;;;;5090726;28;20808;-75
2023/09/01 03:29:14;;;;;;;17.10;16.20;;;18.10;99.90;;;;;;5082943;28;20814;-75
2023/09/01 03:31:40;;;;;;;15.40;14.80;;;18.20;99.90;;;;;;5070605;28;20443;-76
2023/09/01 03:34:09;;;;;;;14.97;14.17;;;18.20;99.90;;;;;;5070510;28;20493;-75
2023/09/01 03:36:36;;;;;;;15.10;14.50;;;18.30;99.90;;;;;;5070585;28;20554;-75
2023/09/01 03:39:07;;;;;;;15.13;14.27;;;18.30;99.90;;;;;;5070464;28;20817;-75
2023/09/01 03:41:35;;;;;;;14.40;13.90;;;18.30;99.90;;;;;;5070299;28;20454;-75
2023/09/01 03:44:02;;;;;;;16.10;15.40;;;18.30;99.90;;;;;;5070403;28;20933;-75
2023/09/01 03:46:29;;;;;;;14.30;13.60;;;18.40;99.90;;;;;;5070380;28;20483;-75
2023/09/01 03:48:56;;;;;;;13.63;13.03;;;18.30;99.90;;;;;;5070248;28;20841;-75
2023/09/01 03:51:23;;;;;;;15.80;15.20;;;18.30;99.90;;;;;;5070294;28;20455;-74
2023/09/01 03:53:49;;;;;;;16.63;15.83;;;18.30;99.90;;;;;;5069930;28;20498;-75
2023/09/01 03:56:19;;;;;;;15.80;15.20;;;18.30;99.90;;;;;;5070365;28;20960;-74
2023/09/01 03:58:46;;;;;;;14.70;14.10;;;18.20;99.90;;;;;;5070165;28;21060;-74
2023/09/01 04:01:13;;;;;;;13.57;13.07;;;18.30;99.90;;;;;;5070167;28;20449;-73
2023/09/01 04:03:41;;;;;;;15.03;14.07;;;18.20;99.90;;;;;;5070055;28;20439;-74
2023/09/01 04:06:09;;;;;;;14.60;14.10;;;18.30;99.90;;;;;;5070119;28;20478;-74
2023/09/01 04:08:36;;;;;;;13.90;13.40;;;18.30;99.90;;;;;;5070194;28;20444;-74
2023/09/01 04:11:03;;;;;;;14.50;13.90;;;18.20;99.90;;;;;;5070145;28;20447;-74
2023/09/01 04:13:31;;;;;;;16.00;15.30;;;18.30;99.90;;;;;;5070045;28;20486;-73
2023/09/01 04:15:58;;;;;;;16.00;15.20;;;18.20;99.90;;;;;;5070008;28;20450;-74
2023/09/01 04:18:25;;;;;;;14.50;13.90;;;18.20;99.90;;;;;;5070071;28;20471;-74
2023/09/01 04:20:54;;;;;;;14.40;13.57;;;18.10;99.90;;;;;;5070101;28;20454;-75
2023/09/01 04:23:21;;;;;;;14.90;14.30;;;18.10;99.90;;;;;;5070068;28;20443;-74
2023/09/01 04:25:48;;;;;;;14.80;14.20;;;18.00;99.90;;;;;;5069940;28;20474;-74
2023/09/01 04:28:16;;;;;;;16.37;15.63;;;17.90;99.90;;;;;;5070003;28;20546;-74
2023/09/01 04:30:45;;;;;;;14.50;13.67;;;17.80;99.90;;;;;;5070728;28;20536;-74
2023/09/01 04:33:12;;;;;;;14.87;14.17;;;17.80;99.90;;;;;;5073330;28;20450;-74
2023/09/01 04:35:39;;;;;;;15.77;15.07;;;17.80;99.90;;;;;;5073484;28;20447;-74
2023/09/01 04:38:06;;;;;;;17.27;16.03;;;17.80;99.90;;;;;;5073161;28;20447;-74
2023/09/01 04:40:33;;;;;;;15.50;14.80;;;17.70;99.90;;;;;;5073349;28;20458;-74
2023/09/01 04:42:59;;;;;;;16.47;15.77;;;17.70;99.90;;;;;;5073311;28;20450;-74
2023/09/01 04:45:26;;;;;;;16.80;15.57;;;17.70;99.90;;;;;;5073174;28;20446;-73
2023/09/01 04:47:54;;;;;;;16.20;15.50;;;17.70;99.90;;;;;;5073556;28;20443;-75
2023/09/01 04:50:21;;;;;;;15.40;14.60;;;17.70;99.90;;;;;;5075556;28;20462;-74
2023/09/01 04:52:48;;;;;;;15.90;14.80;;;17.70;99.90;;;;;;5079535;28;20489;-74
2023/09/01 04:55:15;;;;;;;15.33;14.63;;;17.70;99.90;;;;;;5090527;28;20490;-75
2023/09/01 04:57:42;;;;;;;15.87;14.63;;;17.80;99.90;;;;;;5093254;28;20453;-75
2023/09/01 05:00:15;;;;;;;15.20;14.23;;;17.80;99.90;;;;;;5085871;28;20456;-74
2023/09/01 05:02:43;;;;;;;14.37;13.70;;;17.80;99.90;;;;;;5083932;28;20452;-75
2023/09/01 05:05:11;;;;;;;13.83;13.33;;;17.90;99.90;;;;;;5082648;28;20450;-75
2023/09/01 05:07:38;;;;;;;14.20;13.40;;;17.90;99.90;;;;;;5076710;28;20475;-75
2023/09/01 05:10:06;;;;;;;13.60;13.10;;;17.90;99.90;;;;;;5081167;28;20489;-74
2023/09/01 05:12:32;;;;;;;14.73;14.07;;;18.00;99.90;;;;;;5082472;28;20483;-73
2023/09/01 05:15:00;;;;;;;15.33;14.53;;;18.00;99.90;;;;;;5080963;28;20486;-74
2023/09/01 05:17:27;;;;;;;15.03;14.03;;;18.00;99.90;;;;;;5076849;28;20471;-75
2023/09/01 05:19:54;;;;;;;13.90;13.30;;;18.00;99.90;;;;;;5078682;28;20470;-74
2023/09/01 05:22:22;;;;;;;14.03;13.43;;;18.10;99.90;;;;;;5092464;28;20963;-74
2023/09/01 05:24:49;;;;;;;14.33;13.73;;;18.10;99.90;;;;;;5085582;28;20499;-74
2023/09/01 05:27:18;;;;;;;15.13;14.33;;;18.10;99.90;;;;;;5076836;28;20991;-75
2023/09/01 05:29:45;;;;;;;14.13;13.53;;;18.10;99.90;;;;;;5081039;28;20459;-75
2023/09/01 05:32:12;;;;;;;14.77;14.03;;;18.10;99.90;;;;;;5083012;28;20473;-75
2023/09/01 05:34:38;;;;;;;14.50;13.50;;;18.10;99.90;;;;;;5080094;28;20486;-75
2023/09/01 05:37:07;;;;;;;15.07;14.40;;;18.10;99.90;;;;;;5076462;28;20466;-75
2023/09/01 05:39:35;;;;;;;16.87;15.97;;;18.00;99.90;;;;;;5080519;28;20479;-73
2023/09/01 05:42:02;;;;;;;16.03;15.07;;;17.90;99.90;;;;;;5082195;28;20458;-73
2023/09/01 05:44:29;;;;;;;17.87;16.70;;;17.90;99.90;;;;;;5079994;28;20466;-73
2023/09/01 05:46:56;;;;;;;18.07;17.37;;;17.90;99.90;;;;;;5076418;28;20829;-75
2023/09/01 05:49:23;;;;;;;28.30;26.87;;;17.80;99.90;;;;;;5080276;28;20455;-75
2023/09/01 05:51:50;;;;;;;33.77;32.17;;;17.70;99.90;;;;;;5082275;28;20954;-74
2023/09/01 05:54:17;;;;;;;36.00;34.00;;;17.60;99.90;;;;;;5078787;28;20497;-75
2023/09/01 05:56:45;;;;;;;35.07;33.40;;;17.40;99.90;;;;;;5076814;28;20474;-74
2023/09/01 05:59:12;;;;;;;36.93;35.00;;;17.30;99.90;;;;;;5079624;28;20458;-75
2023/09/01 06:01:39;;;;;;;34.67;32.77;;;17.20;99.90;;;;;;5079933;28;20476;-73
2023/09/01 06:04:06;;;;;;;36.67;34.67;;;17.10;99.90;;;;;;5084809;28;20446;-74
2023/09/01 06:06:33;;;;;;;36.50;34.50;;;17.00;99.90;;;;;;5077091;28;20453;-75
2023/09/01 06:09:00;;;;;;;36.00;34.10;;;17.10;99.90;;;;;;5079787;28;20439;-75
2023/09/01 06:11:28;;;;;;;35.17;33.17;;;17.10;99.90;;;;;;5077883;28;20447;-77
2023/09/01 06:13:56;;;;;;;34.97;32.87;;;17.10;99.90;;;;;;5084423;28;20482;-79
2023/09/01 06:16:25;;;;;;;37.23;35.13;;;17.20;99.90;;;;;;5076836;28;20446;-73
2023/09/01 06:18:52;;;;;;;37.03;35.03;;;17.20;99.90;;;;;;5079587;28;20447;-74
2023/09/01 06:21:19;;;;;;;38.00;35.90;;;17.20;99.90;;;;;;5081896;28;21091;-75
2023/09/01 06:23:46;;;;;;;37.57;35.47;;;17.20;99.90;;;;;;5074409;28;20462;-73
2023/09/01 06:26:13;;;;;;;38.17;36.17;;;17.20;99.90;;;;;;5090852;28;20533;-73
2023/09/01 06:28:41;;;;;;;39.37;37.37;;;17.10;99.90;;;;;;5090264;28;20457;-72
2023/09/01 06:31:10;;;;;;;37.53;35.50;;;17.00;99.90;;;;;;5070492;28;20447;-71
2023/09/01 06:33:36;;;;;;;39.53;37.43;;;16.90;99.90;;;;;;5070555;28;20459;-73
2023/09/01 06:36:04;;;;;;;40.40;38.00;;;16.80;99.90;;;;;;5070469;28;20443;-70
2023/09/01 06:38:31;;;;;;;38.87;36.40;;;16.90;99.90;;;;;;5070442;28;20496;-71
2023/09/01 06:40:57;;;;;;;37.33;35.23;;;16.90;99.90;;;;;;5070516;28;20493;-72
2023/09/01 06:43:24;;;;;;;36.83;34.70;;;16.90;99.90;;;;;;5071823;28;20979;-72
2023/09/01 06:45:51;;;;;;;37.50;35.50;;;16.90;99.90;;;;;;5085019;28;20515;-70
2023/09/01 06:48:19;;;;;;;37.73;35.63;;;16.80;99.90;;;;;;5077164;28;20823;-72
2023/09/01 06:50:45;;;;;;;38.23;36.23;;;16.90;99.90;;;;;;5076910;28;20458;-71
2023/09/01 06:53:12;;;;;;;37.53;35.63;;;17.00;99.90;;;;;;5081179;28;20478;-72
2023/09/01 06:55:39;;;;;;;35.57;33.77;;;17.00;99.90;;;;;;5075464;28;20510;-72
2023/09/01 06:58:06;;;;;;;34.87;33.07;;;17.00;99.90;;;;;;5075510;28;20470;-72
2023/09/01 07:00:32;;;;;;;35.57;33.87;;;17.00;99.90;;;;;;5078914;28;20546;-72
2023/09/01 07:02:59;;;;;;;34.93;33.33;;;17.00;99.90;;;;;;5072714;28;20450;-72
2023/09/01 07:05:27;;;;;;;35.70;33.90;;;17.10;99.90;;;;;;5074413;28;20462;-72
2023/09/01 07:07:54;;;;;;;36.67;34.77;;;17.20;99.90;;;;;;5075509;28;20454;-72
2023/09/01 07:10:21;;;;;;;36.40;34.50;;;17.20;99.90;;;;;;5071831;28;20458;-72
2023/09/01 07:33:32;;;;;;;33.77;32.20;;;17.20;99.90;;;;;;6013560;22;20568;-72
2023/09/01 07:35:59;;;;;;;32.40;30.90;;;17.20;99.90;;;;;;5046630;28;21035;-73
2023/09/01 07:38:25;;;;;;;31.07;29.60;;;17.20;99.90;;;;;;5047428;28;20671;-75
2023/09/01 07:40:52;;;;;;;33.90;32.30;;;17.20;99.90;;;;;;5039806;28;20452;-74
2023/09/01 07:43:19;;;;;;;31.80;30.20;;;17.20;99.90;;;;;;5041359;28;20455;-73
2023/09/01 07:45:46;;;;;;;32.20;30.60;;;17.20;99.90;;;;;;5041114;28;20455;-74
2023/09/01 07:48:12;;;;;;;34.80;33.10;;;17.30;99.90;;;;;;5033757;28;20472;-73
2023/09/01 07:50:40;;;;;;;34.00;32.30;;;17.40;99.90;;;;;;5034203;28;20462;-73
2023/09/01 07:53:07;;;;;;;32.40;30.80;;;17.40;99.90;;;;;;5038151;28;20454;-73
2023/09/01 07:55:34;;;;;;;34.03;32.13;;;17.50;99.90;;;;;;5038180;28;20491;-75
2023/09/01 07:58:01;;;;;;;31.20;29.80;;;17.50;99.90;;;;;;5037644;28;20445;-74
2023/09/01 08:00:39;;;;;;;31.50;29.77;;;17.60;99.90;;;;;;5032763;28;20468;-74
2023/09/01 08:03:10;;;;;;;31.07;29.60;;;17.70;99.90;;;;;;5037310;28;20566;-74
2023/09/01 08:05:37;;;;;;;32.03;30.53;;;17.90;99.90;;;;;;5042123;28;20519;-75
2023/09/01 08:08:06;;;;;;;32.83;30.60;;;18.00;99.90;;;;;;5045609;28;20467;-75
2023/09/01 08:10:32;;;;;;;30.27;28.70;;;18.30;99.90;;;;;;5043022;28;20448;-74
2023/09/01 08:12:59;;;;;;;25.80;24.70;;;18.40;99.90;;;;;;5045693;28;20455;-75
2023/09/01 08:15:26;;;;;;;24.90;23.60;;;18.40;99.90;;;;;;5040837;28;20496;-74
2023/09/01 08:17:54;;;;;;;23.43;22.23;;;18.50;99.90;;;;;;5045340;28;20452;-75
2023/09/01 08:20:22;;;;;;;22.10;20.80;;;18.60;99.90;;;;;;5046671;28;20941;-74
2023/09/01 08:22:48;;;;;;;23.43;22.20;;;18.90;99.90;;;;;;5045480;28;20486;-75
2023/09/01 08:25:17;;;;;;;22.10;21.10;;;19.20;99.90;;;;;;5044288;28;20448;-75
2023/09/01 08:27:43;;;;;;;20.03;19.23;;;19.20;99.90;;;;;;5041287;28;20457;-75
2023/09/01 08:30:11;;;;;;;19.43;18.63;;;19.30;99.90;;;;;;5044999;28;20478;-76
2023/09/01 08:32:40;;;;;;;18.33;17.30;;;19.50;99.90;;;;;;5035830;28;20475;-75
2023/09/01 08:35:07;;;;;;;17.67;16.97;;;19.80;99.90;;;;;;5040984;28;20492;-76
2023/09/01 08:37:34;;;;;;;16.93;16.20;;;20.10;99.90;;;;;;5041032;28;20456;-76
2023/09/01 08:40:01;;;;;;;17.33;16.73;;;20.40;99.90;;;;;;5045250;28;20455;-76
2023/09/01 08:42:29;;;;;;;16.07;15.47;;;20.50;99.90;;;;;;5041858;28;20488;-76
2023/09/01 08:44:59;;;;;;;16.50;15.90;;;20.80;99.90;;;;;;5042772;28;20452;-76
2023/09/01 08:47:29;;;;;;;16.43;15.63;;;21.10;99.90;;;;;;5042177;28;20522;-76
2023/09/01 08:49:56;;;;;;;16.60;15.90;;;21.50;99.90;;;;;;5041130;28;20455;-76
2023/09/01 08:52:24;;;;;;;14.67;14.07;;;21.60;99.90;;;;;;5043144;28;20942;-76
2023/09/01 08:54:51;;;;;;;14.93;14.43;;;21.60;99.90;;;;;;5042079;28;20502;-73
2023/09/01 08:57:17;;;;;;;15.90;15.20;;;21.90;99.90;;;;;;5042762;28;20461;-76
2023/09/01 08:59:45;;;;;;;15.93;15.43;;;22.10;99.90;;;;;;5037737;28;20453;-76
2023/09/01 09:02:12;;;;;;;16.23;15.70;;;22.20;99.90;;;;;;5050830;28;20814;-76
2023/09/01 09:04:39;;;;;;;14.70;14.10;;;22.20;99.90;;;;;;5051998;28;20440;-76
2023/09/01 09:07:14;;;;;;;14.33;13.73;;;22.50;99.90;;;;;;5044760;28;20457;-74
2023/09/01 09:09:53;;;;;;;14.97;14.27;;;22.60;99.90;;;;;;5038700;28;21237;-74
2023/09/01 09:12:22;;;;;;;14.00;13.50;;;22.40;99.90;;;;;;5052083;28;20450;-74
2023/09/01 09:14:52;;;;;;;12.77;12.33;;;22.50;99.90;;;;;;5052174;28;20519;-76
2023/09/01 09:17:21;;;;;;;13.90;13.30;;;22.90;99.90;;;;;;5051276;28;20459;-75
2023/09/01 09:19:53;;;;;;;11.97;11.57;;;23.10;99.90;;;;;;5051941;28;20444;-73
2023/09/01 09:22:20;;;;;;;15.63;14.77;;;23.90;99.90;;;;;;5051797;28;20452;-75
2023/09/01 09:24:47;;;;;;;12.97;12.40;;;24.60;99.90;;;;;;5052194;28;20440;-75
2023/09/01 09:27:18;;;;;;;13.73;13.20;;;25.30;99.90;;;;;;5051908;28;20952;-74
2023/09/01 09:29:47;;;;;;;13.10;12.30;;;25.90;99.90;;;;;;5052143;28;20458;-76
2023/09/01 09:32:23;;;;;;;13.40;12.80;;;26.40;99.90;;;;;;5050231;28;20502;-76
2023/09/01 09:35:08;;;;;;;13.33;12.67;;;26.40;99.90;;;;;;5031993;28;20854;-76
2023/09/01 09:37:35;;;;;;;12.97;12.20;;;26.20;99.90;;;;;;5040388;28;20488;-76
2023/09/01 09:40:11;;;;;;;14.33;13.53;;;25.90;99.90;;;;;;5032164;28;20471;-74
2023/09/01 09:42:38;;;;;;;14.60;14.10;;;26.40;99.90;;;;;;5034205;28;20456;-75
2023/09/01 09:45:06;;;;;;;13.30;12.90;;;26.40;99.90;;;;;;5038327;28;20939;-75
2023/09/01 09:47:35;;;;;;;13.60;13.10;;;25.90;99.90;;;;;;5043712;28;20938;-75
2023/09/01 09:50:02;;;;;;;13.60;13.10;;;25.90;99.90;;;;;;5045568;28;20463;-76
2023/09/01 09:52:33;;;;;;;13.43;12.93;;;25.90;99.90;;;;;;5031455;28;20550;-77
2023/09/01 09:55:03;;;;;;;13.37;12.87;;;26.20;99.90;;;;;;5031546;28;20485;-76
2023/09/01 09:57:32;;;;;;;12.50;12.10;;;26.20;99.90;;;;;;5031520;28;20449;-76
2023/09/01 10:00:10;;;;;;;13.47;12.97;;;26.20;99.90;;;;;;5031310;28;20876;-76
2023/09/01 10:02:44;;;;;;;13.17;12.67;;;25.90;99.90;;;;;;5029579;28;20938;-76
2023/09/01 10:05:13;;;;;;;13.80;13.30;;;25.80;99.90;;;;;;5031323;28;20448;-76
2023/09/01 10:07:40;;;;;;;14.83;14.33;;;25.30;99.90;;;;;;5031452;28;20544;-75
2023/09/01 10:10:08;;;;;;;16.90;16.30;;;24.50;99.90;;;;;;5036946;28;20460;-76
2023/09/01 10:12:36;;;;;;;20.40;19.60;;;23.70;99.90;;;;;;5049508;28;20448;-75
2023/09/01 10:15:04;;;;;;;21.40;20.60;;;23.30;99.90;;;;;;5040631;28;20488;-75
2023/09/01 10:17:34;;;;;;;21.10;20.20;;;23.00;99.90;;;;;;5041462;28;20448;-77
2023/09/01 10:20:06;;;;;;;21.47;20.57;;;22.80;99.90;;;;;;5039651;28;20581;-76
2023/09/01 10:22:38;;;;;;;21.70;20.90;;;22.80;99.90;;;;;;5042214;28;20460;-77
2023/09/01 10:25:10;;;;;;;22.30;21.50;;;22.70;99.90;;;;;;5043297;28;20524;-75
2023/09/01 10:27:37;;;;;;;22.97;22.07;;;22.50;99.90;;;;;;5031759;28;20532;-77
2023/09/01 10:30:19;;;;;;;22.33;21.43;;;22.50;99.90;;;;;;5041962;28;20535;-76
2023/09/01 10:32:45;;;;;;;20.73;19.93;;;22.50;99.90;;;;;;5037714;28;20463;-76
2023/09/01 10:35:13;;;;;;;18.77;18.10;;;22.60;99.90;;;;;;5038700;28;20496;-76
2023/09/01 10:37:40;;;;;;;17.53;16.93;;;22.60;99.90;;;;;;5041925;28;20459;-76
2023/09/01 10:40:40;;;;;;;15.70;15.10;;;22.70;99.90;;;;;;5043098;28;20830;-76
2023/09/01 10:43:07;;;;;;;14.43;13.93;;;22.50;99.90;;;;;;5029320;28;20823;-75
2023/09/01 10:45:34;;;;;;;15.10;14.60;;;22.60;99.90;;;;;;5030306;28;20448;-75
2023/09/01 10:48:01;;;;;;;15.00;14.40;;;22.60;99.90;;;;;;5030223;28;20810;-76
2023/09/01 10:50:32;;;;;;;14.77;14.27;;;23.00;99.90;;;;;;5030432;28;20445;-74
2023/09/01 10:53:31;;;;;;;14.93;14.33;;;23.50;99.90;;;;;;5030398;28;20444;-77
2023/09/01 10:56:08;;;;;;;14.97;14.47;;;23.30;99.90;;;;;;5030442;28;20489;-75
2023/09/01 10:58:39;;;;;;;15.10;14.40;;;23.60;99.90;;;;;;5030462;28;20822;-76
2023/09/01 11:01:27;;;;;;;15.30;14.80;;;23.70;99.90;;;;;;5044676;28;20455;-75
2023/09/01 11:03:54;;;;;;;15.90;15.30;;;24.10;99.90;;;;;;5049010;28;20868;-75
2023/09/01 11:06:22;;;;;;;12.80;12.40;;;24.40;99.90;;;;;;5049607;28;20440;-74
2023/09/01 11:08:59;;;;;;;14.43;13.93;;;24.70;99.90;;;;;;5050101;28;20452;-75
2023/09/01 11:11:26;;;;;;;14.73;14.20;;;24.70;99.90;;;;;;5032577;28;20440;-74
2023/09/01 11:13:54;;;;;;;14.40;13.90;;;24.60;99.90;;;;;;5049236;28;20487;-75
2023/09/01 11:16:20;;;;;;;14.00;13.20;;;24.90;99.90;;;;;;5048617;28;20484;-76
2023/09/01 11:18:59;;;;;;;12.70;12.30;;;25.30;99.90;;;;;;5049355;28;20466;-74
2023/09/01 11:21:27;;;;;;;15.10;14.60;;;25.40;99.90;;;;;;5041728;28;20452;-75
2023/09/01 11:23:57;;;;;;;14.27;13.50;;;25.60;99.90;;;;;;5049611;28;20439;-75
2023/09/01 11:26:24;;;;;;;12.77;12.37;;;25.80;99.90;;;;;;5049873;28;20451;-74
2023/09/01 11:28:51;;;;;;;13.27;12.77;;;26.00;99.90;;;;;;5049779;28;20451;-75
2023/09/01 11:31:18;;;;;;;13.33;12.83;;;26.50;99.90;;;;;;5050380;28;20444;-75
2023/09/01 11:33:52;;;;;;;12.20;11.70;;;27.10;99.90;;;;;;5049392;28;20491;-75
2023/09/01 11:36:19;;;;;;;13.53;13.13;;;27.50;99.90;;;;;;5049752;28;20483;-76
2023/09/01 11:38:47;;;;;;;12.47;11.97;;;28.60;99.90;;;;;;5049724;28;20458;-76
2023/09/01 11:41:16;;;;;;;13.73;13.20;;;28.70;99.90;;;;;;5053217;28;20444;-75
2023/09/01 11:43:43;;;;;;;16.40;15.60;;;28.60;99.90;;;;;;5053454;28;20812;-75
2023/09/01 11:46:11;;;;;;;14.20;13.70;;;28.90;99.50;;;;;;5053455;28;20475;-75
2023/09/01 11:48:38;;;;;;;14.40;13.90;;;28.80;99.90;;;;;;5053288;28;20448;-74
2023/09/01 11:51:05;;;;;;;14.80;13.90;;;28.60;99.20;;;;;;5053497;28;20818;-74
2023/09/01 11:53:33;;;;;;;14.40;13.80;;;29.00;99.00;;;;;;5053475;28;20440;-75
2023/09/01 11:56:17;;;;;;;14.50;13.90;;;29.50;98.80;;;;;;5053157;28;20940;-73
2023/09/01 11:58:48;;;;;;;14.00;13.40;;;30.50;95.50;;;;;;5051623;28;20884;-75
2023/09/01 12:01:16;;;;;;;13.43;13.03;;;31.90;92.10;;;;;;5052616;28;20448;-74
2023/09/01 12:03:46;;;;;;;14.80;14.20;;;32.40;91.60;;;;;;5052467;28;20917;-75
2023/09/01 12:06:20;;;;;;;14.50;14.00;;;33.50;84.90;;;;;;5052292;28;20506;-75
2023/09/01 12:08:47;;;;;;;14.20;13.80;;;32.50;85.20;;;;;;5052133;28;20448;-75
2023/09/01 12:11:16;;;;;;;13.90;13.40;;;31.90;87.30;;;;;;5052789;28;20817;-74
2023/09/01 12:13:44;;;;;;;14.30;13.80;;;31.70;88.80;;;;;;5052545;28;20929;-74
2023/09/01 12:16:20;;;;;;;14.20;13.70;;;31.50;89.80;;;;;;5052156;28;20519;-74
2023/09/01 12:18:47;;;;;;;15.27;14.77;;;32.60;87.50;;;;;;5052564;28;20525;-74
2023/09/01 12:21:14;;;;;;;15.40;14.70;;;33.70;83.00;;;;;;5052734;28;20447;-75
2023/09/01 12:23:43;;;;;;;16.80;16.20;;;34.50;78.30;;;;;;5052785;28;20444;-74
2023/09/01 12:26:10;;;;;;;16.40;15.83;;;33.60;80.50;;;;;;5051089;28;20463;-74
2023/09/01 12:28:40;;;;;;;14.23;13.77;;;33.40;78.90;;;;;;5052062;28;20830;-75
2023/09/01 12:31:08;;;;;;;14.00;13.40;;;33.30;76.50;;;;;;5052683;28;20828;-75
2023/09/01 12:33:35;;;;;;;14.40;14.00;;;32.40;81.30;;;;;;5052430;28;20511;-74
2023/09/01 12:36:03;;;;;;;14.50;13.93;;;31.10;82.60;;;;;;5052116;28;20483;-76
2023/09/01 12:38:30;;;;;;;14.30;13.80;;;29.90;87.00;;;;;;5052082;28;20463;-76
2023/09/01 12:40:57;;;;;;;13.90;13.10;;;29.40;89.00;;;;;;5047943;28;20580;-76
2023/09/01 12:43:23;;;;;;;14.00;13.50;;;29.30;90.80;;;;;;5051944;28;20448;-75
2023/09/01 12:45:51;;;;;;;13.97;13.57;;;28.80;90.50;;;;;;5042093;28;20452;-74
2023/09/01 12:48:18;;;;;;;13.40;13.00;;;28.60;91.00;;;;;;5052247;28;20452;-77
2023/09/01 12:50:45;;;;;;;13.87;13.40;;;28.10;91.90;;;;;;5051541;28;20463;-75
2023/09/01 12:53:12;;;;;;;12.40;12.00;;;27.20;93.20;;;;;;5051894;28;20452;-75
2023/09/01 12:55:39;;;;;;;14.20;13.67;;;26.90;93.80;;;;;;5052198;28;20456;-74